createdAt,value
2019-05-29T00:00:16.620Z,12.40
2019-05-29T00:02:45.312Z,12.30
2019-05-29T00:05:14.336Z,12.30
2019-05-29T00:07:43.247Z,12.30
2019-05-29T00:10:12.364Z,12.10
2019-05-29T00:12:41.112Z,12.10
2019-05-29T00:15:10.396Z,11.90
2019-05-29T00:17:39.185Z,11.90
2019-05-29T00:20:08.286Z,11.80
2019-05-29T00:22:37.108Z,11.80
2019-05-29T00:25:06.735Z,11.80
2019-05-29T00:27:35.465Z,11.80
2019-05-29T00:30:06.816Z,11.90
2019-05-29T00:32:36.072Z,11.90
2019-05-29T00:35:08.390Z,11.90
2019-05-29T00:37:37.100Z,11.80
2019-05-29T00:40:08.761Z,11.80
2019-05-29T00:42:37.658Z,11.80
2019-05-29T00:45:09.522Z,11.80
2019-05-29T00:47:38.408Z,11.90
2019-05-29T00:50:08.268Z,11.80
2019-05-29T00:52:36.988Z,11.80
2019-05-29T00:55:06.711Z,11.80
2019-05-29T00:57:35.436Z,11.80
2019-05-29T01:00:05.970Z,11.80
2019-05-29T01:02:34.760Z,11.70
2019-05-29T01:05:04.489Z,11.70
2019-05-29T01:07:33.236Z,11.70
2019-05-29T01:10:01.906Z,11.70
2019-05-29T01:12:30.620Z,11.70
2019-05-29T01:14:59.276Z,11.70
2019-05-29T01:17:28.001Z,11.70
2019-05-29T01:19:56.729Z,11.60
2019-05-29T01:22:25.459Z,11.60
2019-05-29T01:24:54.151Z,11.60
2019-05-29T01:27:23.157Z,11.60
2019-05-29T01:29:51.917Z,11.60
2019-05-29T01:32:21.591Z,11.50
2019-05-29T01:34:50.504Z,11.50
2019-05-29T01:37:20.233Z,11.50
2019-05-29T01:39:48.980Z,11.50
2019-05-29T01:42:17.688Z,11.50
2019-05-29T01:44:46.414Z,11.40
2019-05-29T01:47:15.370Z,11.40
2019-05-29T01:49:44.120Z,11.40
2019-05-29T01:52:12.837Z,11.40
2019-05-29T01:54:41.503Z,11.40
2019-05-29T01:57:10.220Z,11.40
2019-05-29T01:59:38.978Z,11.30
2019-05-29T02:02:07.700Z,11.40
2019-05-29T02:04:36.347Z,11.30
2019-05-29T02:07:05.480Z,11.30
2019-05-29T02:09:34.199Z,11.20
2019-05-29T02:12:02.947Z,11.20
2019-05-29T02:14:31.604Z,11.20
2019-05-29T02:17:00.327Z,11.20
2019-05-29T02:19:29.056Z,11.20
2019-05-29T02:21:57.783Z,11.30
2019-05-29T02:24:27.448Z,11.20
2019-05-29T02:26:56.267Z,11.20
2019-05-29T02:29:24.965Z,11.20
2019-05-29T02:32:12.930Z,11.20
2019-05-29T02:34:41.653Z,11.20
2019-05-29T02:37:10.405Z,11.30
2019-05-29T02:39:39.100Z,11.30
2019-05-29T02:42:07.801Z,11.30
2019-05-29T02:44:37.366Z,11.30
2019-05-29T02:47:06.093Z,11.20
2019-05-29T02:49:34.755Z,11.20
2019-05-29T02:52:03.480Z,11.30
2019-05-29T02:54:32.519Z,11.30
2019-05-29T02:57:01.261Z,11.30
2019-05-29T02:59:31.759Z,11.30
2019-05-29T03:02:00.213Z,11.30
2019-05-29T03:04:30.255Z,11.30
2019-05-29T03:07:00.037Z,11.20
2019-05-29T03:09:30.523Z,11.20
2019-05-29T03:12:00.389Z,11.20
2019-05-29T03:14:29.772Z,11.20
2019-05-29T03:16:59.793Z,11.20
2019-05-29T03:19:30.160Z,11.20
2019-05-29T03:21:58.881Z,11.20
2019-05-29T03:24:28.670Z,11.20
2019-05-29T03:26:57.377Z,11.10
2019-05-29T03:29:26.554Z,11.10
2019-05-29T03:31:56.400Z,11.10
2019-05-29T03:34:28.513Z,11.10
2019-05-29T03:36:55.429Z,11.10
2019-05-29T03:39:24.255Z,11.10
2019-05-29T03:41:52.842Z,11.10
2019-05-29T03:44:21.561Z,11.10
2019-05-29T03:46:50.217Z,11.00
2019-05-29T03:49:18.937Z,11.00
2019-05-29T03:51:47.664Z,11.00
2019-05-29T03:54:16.384Z,11.00
2019-05-29T03:56:45.044Z,11.00
2019-05-29T03:59:13.713Z,11.10
2019-05-29T04:01:42.377Z,11.10
2019-05-29T04:04:11.041Z,11.00
2019-05-29T04:06:39.783Z,11.10
2019-05-29T04:09:08.501Z,11.10
2019-05-29T04:11:37.808Z,11.10
2019-05-29T04:14:06.991Z,11.10
2019-05-29T04:16:59.825Z,11.10
2019-05-29T04:19:46.696Z,11.10
2019-05-29T04:22:18.390Z,11.10
2019-05-29T04:24:48.178Z,11.20
2019-05-29T04:27:19.704Z,11.20
2019-05-29T04:29:49.190Z,11.30
2019-05-29T04:32:17.908Z,11.30
2019-05-29T04:34:46.667Z,11.30
2019-05-29T04:37:15.384Z,11.40
2019-05-29T04:39:44.032Z,11.60
2019-05-29T04:42:12.688Z,11.60
2019-05-29T04:44:41.507Z,11.70
2019-05-29T04:47:12.208Z,11.90
2019-05-29T04:49:40.629Z,12.10
2019-05-29T04:52:09.280Z,12.30
2019-05-29T04:54:39.977Z,12.50
2019-05-29T04:57:08.304Z,12.50
2019-05-29T04:59:37.172Z,12.50
2019-05-29T05:02:05.765Z,12.60
2019-05-29T05:04:35.196Z,12.60
2019-05-29T05:07:03.959Z,12.60
2019-05-29T05:09:33.342Z,12.50
2019-05-29T05:12:02.252Z,12.50
2019-05-29T05:14:31.486Z,12.50
2019-05-29T05:17:00.696Z,12.60
2019-05-29T05:19:29.700Z,12.50
2019-05-29T05:21:58.581Z,12.40
2019-05-29T05:24:27.240Z,12.40
2019-05-29T05:26:55.969Z,12.30
2019-05-29T05:29:24.832Z,12.10
2019-05-29T05:31:53.684Z,12.10
2019-05-29T05:34:22.576Z,12.10
2019-05-29T05:36:51.447Z,12.10
2019-05-29T05:39:20.306Z,12.20
2019-05-29T05:41:49.164Z,12.20
2019-05-29T05:44:18.011Z,12.30
2019-05-29T05:46:46.871Z,12.20
2019-05-29T05:49:15.748Z,12.20
2019-05-29T05:51:44.816Z,12.40
2019-05-29T05:54:13.576Z,12.50
2019-05-29T05:56:42.234Z,12.60
2019-05-29T05:59:11.167Z,12.70
2019-05-29T06:01:40.129Z,13.00
2019-05-29T06:04:08.842Z,13.20
2019-05-29T06:06:38.135Z,13.30
2019-05-29T06:09:08.452Z,13.60
2019-05-29T06:11:38.225Z,13.60
2019-05-29T06:14:07.118Z,13.20
2019-05-29T06:16:37.022Z,13.30
2019-05-29T06:19:05.826Z,13.40
2019-05-29T06:21:34.628Z,13.30
2019-05-29T06:24:03.356Z,13.40
2019-05-29T06:26:32.778Z,13.70
2019-05-29T06:29:01.568Z,14.00
2019-05-29T06:31:30.298Z,14.20
2019-05-29T06:33:58.961Z,14.20
2019-05-29T06:36:27.684Z,14.10
2019-05-29T06:38:56.515Z,14.10
2019-05-29T06:41:25.156Z,14.10
2019-05-29T06:43:53.845Z,13.90
2019-05-29T06:46:22.514Z,13.80
2019-05-29T06:48:59.401Z,13.80
2019-05-29T06:51:21.536Z,13.90
2019-05-29T06:53:50.270Z,14.10
2019-05-29T06:56:19.045Z,14.20
2019-05-29T06:58:48.489Z,14.40
2019-05-29T07:01:17.421Z,14.70
2019-05-29T07:03:46.152Z,15.20
2019-05-29T07:06:14.874Z,15.30
2019-05-29T07:08:47.923Z,14.80
2019-05-29T07:11:13.975Z,14.80
2019-05-29T07:13:45.327Z,15.40
2019-05-29T07:16:13.014Z,16.30
2019-05-29T07:19:20.615Z,16.90
2019-05-29T07:21:12.106Z,17.00
2019-05-29T07:23:41.225Z,17.00
2019-05-29T07:26:10.076Z,17.50
2019-05-29T07:28:59.826Z,17.60
2019-05-29T07:31:09.203Z,17.80
2019-05-29T07:33:38.935Z,18.30
2019-05-29T07:36:07.648Z,18.80
2019-05-29T07:38:37.617Z,18.80
2019-05-29T07:41:06.444Z,18.40
2019-05-29T07:43:35.180Z,18.30
2019-05-29T07:46:03.910Z,17.50
2019-05-29T07:48:32.570Z,17.60
2019-05-29T07:51:07.091Z,18.60
2019-05-29T07:53:33.696Z,19.40
2019-05-29T07:56:01.962Z,20.10
2019-05-29T07:58:30.704Z,20.90
2019-05-29T08:01:11.619Z,20.80
2019-05-29T08:03:29.891Z,20.50
2019-05-29T08:05:58.628Z,20.80
2019-05-29T08:08:27.383Z,20.90
2019-05-29T08:10:56.051Z,20.90
2019-05-29T08:13:24.708Z,21.00
2019-05-29T08:16:02.376Z,21.80
2019-05-29T08:18:23.816Z,22.20
2019-05-29T08:20:52.532Z,22.40
2019-05-29T08:23:21.192Z,22.90
2019-05-29T08:25:49.950Z,22.70
2019-05-29T08:28:18.604Z,22.60
2019-05-29T08:30:51.731Z,22.60
2019-05-29T08:33:17.644Z,22.20
2019-05-29T08:35:47.189Z,21.40
2019-05-29T08:38:16.668Z,20.60
2019-05-29T08:40:45.400Z,20.80
2019-05-29T08:43:14.165Z,20.20
2019-05-29T08:45:43.491Z,20.00
2019-05-29T08:48:12.384Z,20.20
2019-05-29T08:50:41.546Z,19.90
2019-05-29T08:53:10.357Z,19.90
2019-05-29T08:55:39.087Z,20.10
2019-05-29T08:58:07.879Z,19.70
2019-05-29T09:00:36.659Z,18.90
2019-05-29T09:03:05.447Z,19.40
2019-05-29T09:05:35.566Z,19.60
2019-05-29T09:08:04.293Z,19.70
2019-05-29T09:10:33.023Z,19.20
2019-05-29T09:13:04.881Z,19.70
2019-05-29T09:15:32.066Z,19.80
2019-05-29T09:18:00.748Z,19.90
2019-05-29T09:20:57.182Z,20.10
2019-05-29T09:22:59.816Z,19.30
2019-05-29T09:25:28.530Z,19.30
2019-05-29T09:27:57.185Z,19.50
2019-05-29T09:30:25.912Z,19.90
2019-05-29T09:32:54.569Z,20.30
2019-05-29T09:35:24.742Z,20.00
2019-05-29T09:37:54.160Z,19.80
2019-05-29T09:40:23.150Z,19.90
2019-05-29T09:42:51.889Z,20.00
2019-05-29T09:45:21.565Z,19.80
2019-05-29T09:47:50.419Z,19.30
2019-05-29T09:50:20.939Z,19.50
2019-05-29T09:52:49.790Z,19.50
2019-05-29T09:55:19.295Z,19.50
2019-05-29T09:57:48.018Z,19.60
2019-05-29T10:00:17.406Z,19.50
2019-05-29T10:02:46.062Z,19.60
2019-05-29T10:05:15.460Z,20.30
2019-05-29T10:07:44.185Z,20.00
2019-05-29T10:10:14.504Z,20.10
2019-05-29T10:12:43.225Z,20.70
2019-05-29T10:15:13.351Z,20.70
2019-05-29T10:17:42.069Z,20.80
2019-05-29T10:20:13.525Z,20.80
2019-05-29T10:22:42.237Z,20.60
2019-05-29T10:25:11.122Z,20.90
2019-05-29T10:27:39.838Z,20.60
2019-05-29T10:30:09.366Z,20.70
2019-05-29T10:32:38.123Z,21.10
2019-05-29T10:35:07.585Z,21.10
2019-05-29T10:37:36.334Z,20.70
2019-05-29T10:40:11.037Z,19.90
2019-05-29T10:42:39.691Z,20.10
2019-05-29T10:45:10.450Z,19.80
2019-05-29T10:47:39.249Z,19.40
2019-05-29T10:50:09.846Z,19.60
2019-05-29T10:52:38.727Z,19.90
2019-05-29T10:55:08.844Z,20.10
2019-05-29T10:57:37.576Z,20.30
2019-05-29T11:00:08.565Z,20.20
2019-05-29T11:02:37.291Z,19.90
2019-05-29T11:05:06.738Z,19.80
2019-05-29T11:07:35.528Z,19.40
2019-05-29T11:10:05.953Z,19.30
2019-05-29T11:12:34.679Z,19.10
2019-05-29T11:15:20.389Z,18.40
2019-05-29T11:17:34.484Z,18.40
2019-05-29T11:20:04.773Z,18.40
2019-05-29T11:22:33.462Z,18.50
2019-05-29T11:25:20.943Z,18.70
2019-05-29T11:27:32.505Z,18.50
2019-05-29T11:30:01.228Z,18.50
2019-05-29T11:32:29.949Z,18.40
2019-05-29T11:34:59.695Z,18.30
2019-05-29T11:37:28.510Z,18.80
2019-05-29T11:39:57.268Z,19.00
2019-05-29T11:42:27.901Z,18.90
2019-05-29T11:44:56.950Z,18.80
2019-05-29T11:47:25.673Z,18.80
2019-05-29T11:49:55.142Z,18.60
2019-05-29T11:52:25.196Z,18.40
2019-05-29T11:54:59.145Z,18.50
2019-05-29T11:57:25.547Z,18.50
2019-05-29T11:59:54.195Z,18.40
2019-05-29T12:02:22.865Z,18.20
2019-05-29T12:04:51.496Z,18.20
2019-05-29T12:07:20.162Z,18.20
2019-05-29T12:09:48.826Z,18.50
2019-05-29T12:12:17.477Z,18.60
2019-05-29T12:15:00.581Z,18.50
2019-05-29T12:17:16.478Z,18.80
2019-05-29T12:19:45.188Z,18.70
2019-05-29T12:22:13.874Z,18.80
2019-05-29T12:24:42.624Z,18.60
2019-05-29T12:27:11.347Z,18.90
2019-05-29T12:29:40.000Z,18.80
2019-05-29T12:32:10.724Z,18.30
2019-05-29T12:34:52.798Z,17.90
2019-05-29T12:37:09.434Z,17.90
2019-05-29T12:39:38.100Z,17.80
2019-05-29T12:42:06.917Z,17.70
2019-05-29T12:44:35.646Z,17.40
2019-05-29T12:47:04.545Z,17.00
2019-05-29T12:49:33.312Z,16.70
2019-05-29T12:52:02.511Z,16.60
2019-05-29T12:54:32.367Z,16.30
2019-05-29T12:57:02.297Z,16.10
2019-05-29T12:59:31.223Z,16.00
2019-05-29T13:02:00.569Z,16.30
2019-05-29T13:04:29.289Z,15.90
2019-05-29T13:06:58.646Z,15.90
2019-05-29T13:09:27.482Z,15.70
2019-05-29T13:11:56.538Z,15.80
2019-05-29T13:14:25.325Z,15.70
2019-05-29T13:16:54.717Z,15.60
2019-05-29T13:19:23.467Z,15.20
2019-05-29T13:21:55.128Z,15.00
2019-05-29T13:24:23.876Z,14.80
2019-05-29T13:26:52.604Z,14.70
2019-05-29T13:29:21.323Z,14.80
2019-05-29T13:31:49.986Z,14.70
2019-05-29T13:34:18.715Z,14.90
2019-05-29T13:36:47.549Z,14.60
2019-05-29T13:39:16.501Z,14.50
2019-05-29T13:41:46.747Z,14.60
2019-05-29T13:44:15.399Z,14.60
2019-05-29T13:46:44.121Z,14.20
2019-05-29T13:49:14.327Z,14.30
2019-05-29T13:51:43.025Z,14.40
2019-05-29T13:54:17.502Z,14.30
2019-05-29T13:56:43.077Z,14.20
2019-05-29T13:59:11.822Z,14.10
2019-05-29T14:01:42.155Z,14.00
2019-05-29T14:04:11.017Z,14.00
2019-05-29T14:06:39.801Z,13.90
2019-05-29T14:09:10.214Z,13.90
2019-05-29T14:11:39.010Z,13.90
2019-05-29T14:14:19.817Z,13.90
2019-05-29T14:16:49.933Z,14.20
2019-05-29T14:19:18.657Z,14.30
2019-05-29T14:22:07.071Z,14.30
2019-05-29T14:24:35.897Z,14.30
2019-05-29T14:27:05.473Z,14.30
2019-05-29T14:29:34.270Z,14.20
2019-05-29T14:32:03.112Z,14.10
2019-05-29T14:34:31.835Z,14.10
2019-05-29T14:37:03.209Z,13.90
2019-05-29T14:39:30.932Z,14.00
2019-05-29T14:41:59.716Z,14.10
2019-05-29T14:44:28.449Z,13.90
2019-05-29T14:46:57.516Z,13.90
2019-05-29T14:49:27.118Z,13.70
2019-05-29T14:51:56.219Z,13.60
2019-05-29T14:54:41.189Z,13.60
2019-05-29T14:57:00.713Z,13.50
2019-05-29T14:59:29.635Z,13.30
2019-05-29T15:02:24.408Z,13.30
2019-05-29T15:05:00.038Z,13.50
2019-05-29T15:10:26.828Z,13.70
2019-05-29T15:12:49.841Z,14.00
2019-05-29T15:15:21.412Z,13.90
2019-05-29T15:17:50.197Z,13.90
2019-05-29T15:20:19.300Z,13.70
2019-05-29T15:22:47.948Z,13.60
2019-05-29T15:25:23.959Z,13.60
2019-05-29T15:27:48.541Z,13.80
2019-05-29T15:30:22.246Z,13.80
2019-05-29T15:32:48.336Z,13.90
2019-05-29T15:35:19.951Z,13.90
2019-05-29T15:37:49.610Z,13.80
2019-05-29T15:40:18.479Z,13.90
2019-05-29T15:42:47.174Z,13.80
2019-05-29T15:45:18.029Z,13.70
2019-05-29T15:47:46.963Z,13.70
2019-05-29T15:50:16.527Z,13.70
2019-05-29T15:52:46.377Z,13.80
2019-05-29T15:55:28.199Z,13.90
2019-05-29T15:57:48.723Z,13.80
2019-05-29T16:00:17.851Z,13.50
2019-05-29T16:05:38.916Z,13.20
2019-05-29T16:08:08.025Z,13.20
2019-05-29T16:10:36.861Z,13.30
2019-05-29T16:13:05.656Z,13.20
2019-05-29T16:15:34.449Z,13.10
2019-05-29T16:19:00.464Z,13.10
2019-05-29T16:24:02.274Z,12.90
2019-05-29T16:29:29.777Z,12.80
2019-05-29T16:31:58.281Z,12.80
2019-05-29T16:34:26.966Z,12.80
2019-05-29T16:36:55.626Z,12.70
2019-05-29T16:39:24.498Z,12.80
2019-05-29T16:41:53.136Z,12.70
2019-05-29T16:44:27.344Z,12.50
2019-05-29T16:46:52.320Z,12.50
2019-05-29T16:49:21.374Z,12.50
2019-05-29T16:51:50.274Z,12.40
2019-05-29T16:54:19.207Z,12.40
2019-05-29T16:56:48.418Z,12.40
2019-05-29T16:59:19.224Z,12.40
2019-05-29T17:01:48.061Z,12.40
2019-05-29T17:04:17.685Z,12.30
2019-05-29T17:06:46.466Z,12.30
2019-05-29T17:09:16.336Z,12.30
2019-05-29T17:11:45.254Z,12.20
2019-05-29T17:14:14.387Z,12.20
2019-05-29T17:16:43.284Z,12.20
2019-05-29T17:19:12.421Z,12.20
2019-05-29T17:21:41.240Z,12.10
2019-05-29T17:24:10.013Z,12.10
2019-05-29T17:26:38.805Z,12.00
2019-05-29T17:29:07.591Z,12.00
2019-05-29T17:31:36.400Z,11.90
2019-05-29T17:34:05.307Z,11.90
2019-05-29T17:36:34.045Z,11.80
2019-05-29T17:39:03.351Z,11.80
2019-05-29T17:41:32.133Z,11.80
2019-05-29T17:44:02.289Z,11.70
2019-05-29T17:46:30.949Z,11.70
2019-05-29T17:48:59.732Z,11.60
2019-05-29T17:51:28.461Z,11.60
2019-05-29T17:53:57.323Z,11.50
2019-05-29T17:56:36.907Z,11.50
2019-05-29T17:59:06.006Z,11.50
2019-05-29T18:01:34.806Z,11.50
2019-05-29T18:04:03.538Z,11.40
2019-05-29T18:06:32.353Z,11.40
2019-05-29T18:09:01.113Z,11.30
2019-05-29T18:11:29.822Z,11.30
2019-05-29T18:14:01.952Z,11.30
2019-05-29T18:16:28.844Z,11.30
2019-05-29T18:18:57.575Z,11.30
2019-05-29T18:21:26.320Z,11.20
2019-05-29T18:23:55.039Z,11.20
2019-05-29T18:26:24.249Z,11.20
2019-05-29T18:28:53.209Z,11.10
2019-05-29T18:31:22.549Z,11.10
2019-05-29T18:33:51.456Z,11.00
2019-05-29T18:36:20.992Z,11.00
2019-05-29T18:38:49.830Z,11.00
2019-05-29T18:41:18.635Z,10.90
2019-05-29T18:43:47.485Z,10.90
2019-05-29T18:46:38.219Z,10.90
2019-05-29T18:49:07.145Z,10.80
2019-05-29T18:51:35.860Z,10.80
2019-05-29T18:54:04.586Z,10.80
2019-05-29T18:56:33.384Z,10.70
2019-05-29T18:59:02.107Z,10.70
2019-05-29T19:01:31.740Z,10.70
2019-05-29T19:04:04.809Z,10.60
2019-05-29T19:06:33.529Z,10.70
2019-05-29T19:09:02.925Z,10.60
2019-05-29T19:11:32.023Z,10.60
2019-05-29T19:14:00.728Z,10.60
2019-05-29T19:16:30.025Z,10.70
2019-05-29T19:18:58.843Z,10.60
2019-05-29T19:21:28.394Z,10.60
2019-05-29T19:23:57.415Z,10.50
2019-05-29T19:26:26.659Z,10.50
2019-05-29T19:28:58.192Z,10.60
2019-05-29T19:31:27.146Z,10.50
2019-05-29T19:33:55.960Z,10.60
2019-05-29T19:36:25.575Z,10.50
2019-05-29T19:38:54.344Z,10.50
2019-05-29T19:41:23.911Z,10.50
2019-05-29T19:43:52.859Z,10.40
2019-05-29T19:46:21.601Z,10.40
2019-05-29T19:48:50.386Z,10.50
2019-05-29T19:51:19.117Z,10.50
2019-05-29T19:53:47.842Z,10.40
2019-05-29T19:56:16.488Z,10.40
2019-05-29T19:58:45.209Z,10.40
2019-05-29T20:01:28.032Z,10.40
2019-05-29T20:03:44.430Z,10.30
2019-05-29T20:06:13.143Z,10.30
2019-05-29T20:08:41.882Z,10.20
2019-05-29T20:11:10.600Z,10.20
2019-05-29T20:13:39.326Z,10.10
2019-05-29T20:16:08.157Z,10.10
2019-05-29T20:18:36.913Z,10.10
2019-05-29T20:21:05.633Z,10.10
2019-05-29T20:23:34.625Z,10.10
2019-05-29T20:26:03.468Z,10.10
2019-05-29T20:28:32.169Z,10.10
2019-05-29T20:31:00.813Z,10.10
2019-05-29T20:33:30.375Z,10.00
2019-05-29T20:35:59.273Z,10.00
2019-05-29T20:38:27.993Z,9.90
2019-05-29T20:40:56.632Z,9.90
2019-05-29T20:43:25.668Z,9.90
2019-05-29T20:45:54.483Z,9.90
2019-05-29T20:48:23.201Z,9.90
2019-05-29T20:50:51.839Z,9.90
2019-05-29T20:53:20.605Z,9.90
2019-05-29T20:55:49.312Z,9.90
2019-05-29T20:58:24.690Z,9.90
2019-05-29T21:00:48.541Z,9.90
2019-05-29T21:03:17.252Z,9.90
2019-05-29T21:05:45.926Z,9.90
2019-05-29T21:08:14.644Z,9.70
2019-05-29T21:10:43.658Z,9.70
2019-05-29T21:13:12.523Z,9.70
2019-05-29T21:15:41.837Z,9.70
2019-05-29T21:18:10.667Z,9.70
2019-05-29T21:20:40.436Z,9.70
2019-05-29T21:23:09.212Z,9.70
2019-05-29T21:25:38.692Z,9.50
2019-05-29T21:28:07.572Z,9.40
2019-05-29T21:30:37.393Z,9.50
2019-05-29T21:33:06.212Z,9.50
2019-05-29T21:35:36.005Z,9.50
2019-05-29T21:38:04.750Z,9.40
2019-05-29T21:40:33.500Z,9.30
2019-05-29T21:43:02.230Z,9.30
2019-05-29T21:45:30.940Z,9.30
2019-05-29T21:47:59.655Z,9.30
2019-05-29T21:50:28.364Z,9.40
2019-05-29T21:52:57.053Z,9.30
2019-05-29T21:55:25.762Z,9.30
2019-05-29T21:57:54.409Z,9.30
2019-05-29T22:00:31.291Z,9.30
2019-05-29T22:02:59.914Z,9.40
2019-05-29T22:05:28.630Z,9.40
2019-05-29T22:07:57.446Z,9.50
2019-05-29T22:10:26.411Z,9.50
2019-05-29T22:12:56.471Z,9.50
2019-05-29T22:15:25.265Z,9.50
2019-05-29T22:17:54.939Z,9.50
2019-05-29T22:20:23.801Z,9.40
2019-05-29T22:22:53.086Z,9.40
2019-05-29T22:25:21.844Z,9.40
2019-05-29T22:27:51.245Z,9.40
2019-05-29T22:30:21.572Z,9.30
2019-05-29T22:32:51.215Z,9.30
2019-05-29T22:35:20.136Z,9.30
2019-05-29T22:37:48.778Z,9.20
2019-05-29T22:40:17.588Z,9.10
2019-05-29T22:42:46.314Z,9.20
2019-05-29T22:45:15.132Z,9.20
2019-05-29T22:47:43.884Z,9.10
2019-05-29T22:50:12.624Z,9.10
2019-05-29T22:52:41.328Z,9.10
2019-05-29T22:55:10.358Z,9.10
2019-05-29T22:57:39.009Z,9.00
2019-05-29T23:00:10.001Z,8.80
2019-05-29T23:02:38.719Z,8.80
2019-05-29T23:05:08.347Z,8.90
2019-05-29T23:07:37.069Z,8.90
2019-05-29T23:10:07.960Z,8.90
2019-05-29T23:12:36.680Z,8.90
2019-05-29T23:15:07.165Z,8.90
2019-05-29T23:17:35.896Z,8.90
2019-05-29T23:20:06.910Z,8.80
2019-05-29T23:22:35.661Z,8.80
2019-05-29T23:25:05.486Z,8.80
2019-05-29T23:27:34.811Z,8.70
2019-05-29T23:30:05.209Z,8.60
2019-05-29T23:32:33.856Z,8.60
2019-05-29T23:35:03.482Z,8.60
2019-05-29T23:37:32.257Z,8.60
2019-05-29T23:40:01.298Z,8.60
2019-05-29T23:42:30.017Z,8.50
2019-05-29T23:44:59.440Z,8.50
2019-05-29T23:47:28.287Z,8.50
2019-05-29T23:49:57.547Z,8.50
2019-05-29T23:52:26.336Z,8.50
2019-05-29T23:54:55.723Z,8.40
2019-05-29T23:57:24.600Z,8.40
